Time;durP1;ratioP1;P1;durP2;ratioP2;P2;SDS_P1;SDS_P2;PMS_P1;PMS_P2;Temp;Humidity;BMP_temperature;BMP_pressure;BME280_temperature;BME280_humidity;BME280_pressure;Samples;Min_cycle;Max_cycle;Signal;HPM_P1;HPM_P2
2022/07/16 00:01:26;;;;;;;3.20;2.90;;;23.40;44.30;;;;;;4980194;28;20225;-68
2022/07/16 00:03:54;;;;;;;4.80;3.15;;;23.40;44.60;;;;;;4980029;28;20189;-68
2022/07/16 00:06:22;;;;;;;3.05;2.80;;;23.40;45.20;;;;;;4980364;28;20572;-68
2022/07/16 00:08:49;;;;;;;3.50;3.20;;;23.40;44.70;;;;;;4980211;28;20292;-68
2022/07/16 00:11:17;;;;;;;3.30;2.92;;;23.40;44.90;;;;;;4979997;28;20225;-68
2022/07/16 00:13:45;;;;;;;3.30;3.00;;;23.30;44.80;;;;;;4980093;28;20204;-68
2022/07/16 00:16:13;;;;;;;4.68;3.40;;;23.40;44.60;;;;;;4980129;28;20201;-68
2022/07/16 00:21:24;;;;;;;3.40;3.10;;;23.30;44.50;;;;;;4980338;28;20213;-68
2022/07/16 00:23:52;;;;;;;3.53;3.10;;;23.30;44.30;;;;;;4980545;28;20201;-70
2022/07/16 00:26:20;;;;;;;3.17;2.88;;;23.30;44.30;;;;;;4982089;28;20206;-68
2022/07/16 00:28:49;;;;;;;3.67;3.38;;;23.30;44.30;;;;;;4981820;28;20201;-68
2022/07/16 00:31:16;;;;;;;4.15;3.00;;;23.30;44.40;;;;;;4980033;28;20284;-67
2022/07/16 00:33:43;;;;;;;3.53;3.22;;;23.30;44.50;;;;;;4979562;28;20203;-67
2022/07/16 00:36:11;;;;;;;3.45;3.15;;;23.30;44.30;;;;;;4979921;28;20292;-68
2022/07/16 00:38:38;;;;;;;3.22;2.90;;;23.30;44.50;;;;;;4979523;28;20221;-68
2022/07/16 00:41:05;;;;;;;3.30;3.00;;;23.20;44.40;;;;;;4979450;28;20197;-68
2022/07/16 00:43:44;;;;;;;5.20;3.10;;;23.20;44.50;;;;;;4979515;28;20201;-68
2022/07/16 00:46:13;;;;;;;4.30;3.05;;;23.20;44.60;;;;;;4979483;28;20232;-68
2022/07/16 00:48:41;;;;;;;3.63;2.85;;;23.20;44.50;;;;;;4979213;28;20197;-68
2022/07/16 00:57:38;;;;;;;4.25;2.95;;;23.10;44.60;;;;;;4977654;28;20265;-67
2022/07/16 01:00:06;;;;;;;3.42;3.13;;;23.10;44.50;;;;;;4976487;28;20198;-67
2022/07/16 01:02:35;;;;;;;3.30;2.95;;;23.10;44.40;;;;;;4977929;28;20217;-66
2022/07/16 01:05:03;;;;;;;3.22;2.92;;;23.10;44.60;;;;;;4960047;28;20253;-67
2022/07/16 01:07:30;;;;;;;3.83;3.42;;;23.10;44.60;;;;;;4977069;28;20225;-66
2022/07/16 01:09:57;;;;;;;3.83;3.35;;;23.10;44.90;;;;;;4975936;28;20201;-67
2022/07/16 01:12:25;;;;;;;3.47;3.15;;;23.00;44.60;;;;;;4976823;28;20636;-67
2022/07/16 01:14:52;;;;;;;3.45;3.15;;;23.00;44.60;;;;;;4960182;28;20205;-66
2022/07/16 01:17:19;;;;;;;3.05;2.80;;;23.00;44.70;;;;;;4977391;28;20214;-67
2022/07/16 01:19:47;;;;;;;3.67;3.25;;;23.00;44.80;;;;;;4975837;28;20581;-67
2022/07/16 01:22:18;;;;;;;3.75;3.35;;;23.00;44.70;;;;;;4962214;28;20697;-67
2022/07/16 01:24:46;;;;;;;3.55;3.25;;;23.00;44.80;;;;;;4962495;28;20198;-67
2022/07/16 01:27:13;;;;;;;3.58;3.28;;;22.90;44.80;;;;;;4959798;28;20288;-67
2022/07/16 01:29:40;;;;;;;3.90;3.25;;;23.00;44.70;;;;;;4977029;28;20269;-66
2022/07/16 01:32:07;;;;;;;3.67;3.28;;;22.90;44.70;;;;;;4958965;28;20218;-66
2022/07/16 01:34:34;;;;;;;4.30;3.22;;;22.90;44.70;;;;;;4975410;28;20206;-66
2022/07/16 01:37:03;;;;;;;3.75;3.45;;;22.90;44.70;;;;;;4959001;28;20256;-67
2022/07/16 01:39:30;;;;;;;3.38;2.90;;;22.90;44.70;;;;;;4958856;28;20300;-67
2022/07/16 01:42:00;;;;;;;3.42;3.10;;;22.90;44.70;;;;;;4976266;28;20222;-67
2022/07/16 01:44:28;;;;;;;3.53;3.22;;;22.90;44.60;;;;;;4976370;28;20264;-67
2022/07/16 01:46:55;;;;;;;3.42;2.97;;;22.80;44.70;;;;;;4958796;28;20741;-67
2022/07/16 01:49:23;;;;;;;3.45;3.17;;;22.80;44.70;;;;;;4976209;28;20213;-67
2022/07/16 01:51:50;;;;;;;3.53;3.22;;;22.80;44.80;;;;;;4975368;28;20673;-66
2022/07/16 01:54:17;;;;;;;3.58;3.28;;;22.80;44.80;;;;;;4976249;28;20273;-67
2022/07/16 01:56:44;;;;;;;3.58;3.28;;;22.70;44.90;;;;;;4958593;28;20202;-67
2022/07/16 01:59:12;;;;;;;3.63;3.33;;;22.70;44.80;;;;;;4975806;28;20214;-67
2022/07/16 02:01:39;;;;;;;3.50;3.20;;;22.70;44.80;;;;;;4958463;28;20681;-67
2022/07/16 02:04:07;;;;;;;3.55;3.25;;;22.70;44.90;;;;;;4974580;28;20206;-67
2022/07/16 02:06:34;;;;;;;3.30;3.10;;;22.70;45.00;;;;;;4975900;28;20545;-66
2022/07/16 02:09:01;;;;;;;3.97;3.00;;;22.70;45.00;;;;;;4973757;28;20630;-66
2022/07/16 02:11:28;;;;;;;4.13;3.28;;;22.70;45.10;;;;;;4974535;28;20249;-67
2022/07/16 02:13:55;;;;;;;3.63;3.15;;;22.70;45.00;;;;;;4975849;28;20272;-66
2022/07/16 02:16:24;;;;;;;3.78;3.10;;;22.60;44.90;;;;;;4975704;28;20200;-67
2022/07/16 02:18:51;;;;;;;3.30;3.00;;;22.60;45.00;;;;;;4958245;28;20228;-66
2022/07/16 02:21:18;;;;;;;3.40;3.10;;;22.60;44.90;;;;;;4975825;28;20202;-66
2022/07/16 02:23:45;;;;;;;4.03;3.22;;;22.60;45.10;;;;;;4974170;28;20230;-67
2022/07/16 02:26:13;;;;;;;3.50;3.20;;;22.60;45.00;;;;;;4974236;28;20213;-67
2022/07/16 02:28:40;;;;;;;3.38;3.08;;;22.60;45.00;;;;;;4958108;28;20198;-66
2022/07/16 02:31:07;;;;;;;3.25;3.00;;;22.60;45.80;;;;;;4957966;28;20237;-66
2022/07/16 02:33:36;;;;;;;3.80;3.50;;;22.60;45.20;;;;;;4958003;28;20285;-67
2022/07/16 02:36:03;;;;;;;3.95;3.15;;;22.60;45.10;;;;;;4957965;28;20221;-67
2022/07/16 02:38:29;;;;;;;3.88;3.53;;;22.50;45.00;;;;;;4975081;28;20249;-66
2022/07/16 02:40:56;;;;;;;4.40;3.10;;;22.50;45.00;;;;;;4957979;28;20202;-67
2022/07/16 02:43:24;;;;;;;4.22;3.58;;;22.50;45.10;;;;;;4957700;28;20697;-67
2022/07/16 02:45:51;;;;;;;3.75;3.20;;;22.50;45.00;;;;;;4957756;28;20194;-67
2022/07/16 02:48:18;;;;;;;5.10;3.30;;;22.50;45.70;;;;;;4975323;28;20186;-66
2022/07/16 02:50:47;;;;;;;3.47;3.17;;;22.50;45.20;;;;;;4958221;28;20678;-67
2022/07/16 02:53:14;;;;;;;3.47;3.17;;;22.50;45.20;;;;;;4957539;28;20257;-67
2022/07/16 02:55:41;;;;;;;3.28;3.00;;;22.50;45.20;;;;;;4973695;28;20198;-67
2022/07/16 02:58:08;;;;;;;3.00;2.80;;;22.40;45.10;;;;;;4957531;28;20225;-67
2022/07/16 03:00:35;;;;;;;4.60;3.45;;;22.40;45.20;;;;;;4957380;28;20733;-67
2022/07/16 03:03:03;;;;;;;4.70;3.47;;;22.40;45.20;;;;;;4957512;28;20273;-67
2022/07/16 03:05:30;;;;;;;3.58;3.28;;;22.40;45.10;;;;;;4957487;28;20212;-67
2022/07/16 03:07:59;;;;;;;3.67;3.35;;;22.40;45.20;;;;;;4975157;28;20245;-67
2022/07/16 03:10:26;;;;;;;3.20;2.90;;;22.40;45.10;;;;;;4974760;28;20204;-66
2022/07/16 03:12:54;;;;;;;3.30;3.00;;;22.40;45.20;;;;;;4974647;28;20209;-67
2022/07/16 03:15:21;;;;;;;3.40;3.00;;;22.40;45.30;;;;;;4975305;28;20198;-67
2022/07/16 03:17:48;;;;;;;3.42;3.13;;;22.40;45.20;;;;;;4974938;28;20767;-67
2022/07/16 03:20:15;;;;;;;3.30;2.97;;;22.40;45.10;;;;;;4957125;28;20206;-67
2022/07/16 03:22:45;;;;;;;3.25;2.92;;;22.30;44.80;;;;;;4974819;28;20253;-67
2022/07/16 03:25:14;;;;;;;3.35;3.15;;;22.30;44.70;;;;;;4957225;28;20202;-67
2022/07/16 03:27:41;;;;;;;3.53;3.22;;;22.40;44.60;;;;;;4974703;28;20190;-66
2022/07/16 03:30:09;;;;;;;4.53;3.33;;;22.30;44.50;;;;;;4957203;28;20198;-66
2022/07/16 03:32:37;;;;;;;3.10;2.90;;;22.40;44.70;;;;;;4974829;28;20222;-67
2022/07/16 03:35:05;;;;;;;3.33;2.92;;;22.40;44.50;;;;;;4973495;28;20667;-67
2022/07/16 03:37:32;;;;;;;3.42;3.13;;;22.40;44.70;;;;;;4957268;28;20209;-67
2022/07/16 03:39:59;;;;;;;3.45;3.17;;;22.40;44.70;;;;;;4973498;28;20198;-67
2022/07/16 03:42:27;;;;;;;3.30;3.00;;;22.40;44.70;;;;;;4973489;28;20229;-67
2022/07/16 03:44:55;;;;;;;3.10;2.90;;;22.40;44.80;;;;;;4957312;28;20202;-66
2022/07/16 03:47:21;;;;;;;3.47;2.97;;;22.40;44.80;;;;;;4974094;28;20205;-67
2022/07/16 03:49:48;;;;;;;3.22;3.00;;;22.40;44.90;;;;;;4975322;28;20269;-67
2022/07/16 03:52:15;;;;;;;3.22;2.92;;;22.30;44.80;;;;;;4957843;28;20594;-67
2022/07/16 03:54:42;;;;;;;3.60;3.13;;;22.30;44.90;;;;;;4976769;28;20233;-68
2022/07/16 03:57:09;;;;;;;3.00;2.80;;;22.30;44.90;;;;;;4957432;28;20276;-67
2022/07/16 03:59:38;;;;;;;3.40;3.10;;;22.30;44.90;;;;;;4973526;28;20237;-68
2022/07/16 04:02:05;;;;;;;3.05;2.70;;;22.30;45.00;;;;;;4974385;28;20206;-67
2022/07/16 04:04:32;;;;;;;2.88;2.63;;;22.20;45.00;;;;;;4974462;28;20194;-68
2022/07/16 04:06:59;;;;;;;3.60;3.28;;;22.20;45.00;;;;;;4974630;28;20198;-67
2022/07/16 04:09:25;;;;;;;3.13;2.85;;;22.20;45.00;;;;;;4973053;28;20205;-67
2022/07/16 04:11:53;;;;;;;3.42;2.92;;;22.20;45.20;;;;;;4956906;28;20273;-67
2022/07/16 04:14:20;;;;;;;3.03;2.83;;;22.20;45.30;;;;;;4956997;28;20249;-67
2022/07/16 04:16:48;;;;;;;3.15;2.80;;;22.20;45.20;;;;;;4973120;28;20206;-67
2022/07/16 04:19:15;;;;;;;3.53;3.10;;;22.20;45.20;;;;;;4956890;28;20218;-67
2022/07/16 04:21:42;;;;;;;3.25;2.95;;;22.20;45.30;;;;;;4956842;28;20618;-67
2022/07/16 04:24:09;;;;;;;3.40;3.10;;;22.20;45.20;;;;;;4956952;28;20221;-67
2022/07/16 04:26:36;;;;;;;3.78;3.00;;;22.20;45.20;;;;;;4956999;28;20198;-67
2022/07/16 04:29:03;;;;;;;3.47;3.17;;;22.20;45.30;;;;;;4957006;28;20198;-67
2022/07/16 04:31:31;;;;;;;3.47;2.88;;;22.20;45.30;;;;;;4973376;28;20248;-67
2022/07/16 04:33:59;;;;;;;4.45;3.22;;;22.20;45.30;;;;;;4960371;28;20253;-67
2022/07/16 04:36:26;;;;;;;3.15;2.90;;;22.20;45.40;;;;;;4976469;28;20637;-67
2022/07/16 04:38:53;;;;;;;3.10;2.90;;;22.20;46.00;;;;;;4960262;28;20218;-67
2022/07/16 04:41:20;;;;;;;3.25;2.97;;;22.20;45.40;;;;;;4977460;28;20194;-67
2022/07/16 04:43:47;;;;;;;3.15;2.95;;;22.20;45.40;;;;;;4976231;28;20659;-67
2022/07/16 04:46:15;;;;;;;2.97;2.78;;;22.20;45.40;;;;;;4976266;28;20685;-67
2022/07/16 04:48:42;;;;;;;3.50;3.20;;;22.20;45.40;;;;;;4977402;28;20245;-67
2022/07/16 04:51:10;;;;;;;3.50;3.17;;;22.20;45.50;;;;;;4960053;28;20273;-67
2022/07/16 04:53:37;;;;;;;3.42;3.13;;;22.40;45.50;;;;;;4960051;28;20749;-67
2022/07/16 04:56:05;;;;;;;3.83;3.20;;;22.50;45.40;;;;;;4960028;28;20635;-67
2022/07/16 04:58:32;;;;;;;4.75;2.92;;;22.70;45.00;;;;;;4959967;28;20705;-67
2022/07/16 05:00:59;;;;;;;3.80;3.50;;;22.90;44.50;;;;;;4976260;28;20206;-67
2022/07/16 05:03:26;;;;;;;3.88;3.50;;;23.10;44.00;;;;;;4977962;28;20286;-68
2022/07/16 05:05:53;;;;;;;3.50;3.20;;;23.30;43.70;;;;;;4960016;28;20293;-68
2022/07/16 05:08:22;;;;;;;4.32;3.55;;;23.50;43.40;;;;;;4975936;28;20194;-67
2022/07/16 05:10:49;;;;;;;3.78;3.38;;;23.70;43.30;;;;;;4959830;28;20209;-68
2022/07/16 05:13:16;;;;;;;3.47;3.13;;;23.80;42.80;;;;;;4959820;28;20221;-67
2022/07/16 05:15:43;;;;;;;4.28;3.47;;;24.00;42.60;;;;;;4959811;28;20224;-68
2022/07/16 05:18:11;;;;;;;4.88;3.50;;;24.10;42.40;;;;;;4959804;28;20249;-67
2022/07/16 05:20:38;;;;;;;3.53;3.22;;;24.30;42.30;;;;;;4959996;28;20296;-67
2022/07/16 05:23:05;;;;;;;3.83;3.53;;;24.40;42.00;;;;;;4959776;28;20218;-67
2022/07/16 05:25:33;;;;;;;3.35;3.05;;;24.40;41.80;;;;;;4977349;28;20222;-67
2022/07/16 05:28:01;;;;;;;3.92;3.60;;;24.60;41.60;;;;;;4959572;28;20667;-67
2022/07/16 05:30:28;;;;;;;4.10;3.40;;;24.70;41.40;;;;;;4959856;28;20662;-67
2022/07/16 05:32:55;;;;;;;3.80;3.40;;;24.80;41.40;;;;;;4967864;28;20225;-67
2022/07/16 05:35:22;;;;;;;4.90;3.78;;;24.90;41.20;;;;;;4985905;28;20210;-67
2022/07/16 05:37:49;;;;;;;3.75;3.45;;;25.00;41.10;;;;;;4960145;28;20213;-67
2022/07/16 05:40:16;;;;;;;4.25;3.80;;;25.10;40.80;;;;;;4975404;28;20221;-67
2022/07/16 05:42:44;;;;;;;3.90;3.50;;;25.20;40.80;;;;;;4975940;28;20214;-67
2022/07/16 05:45:11;;;;;;;3.60;3.30;;;25.30;40.70;;;;;;4974821;28;20292;-67
2022/07/16 05:47:38;;;;;;;4.03;3.50;;;25.30;40.50;;;;;;4975160;28;20667;-67
2022/07/16 05:50:07;;;;;;;3.72;3.30;;;25.40;40.50;;;;;;4959023;28;20218;-67
2022/07/16 05:52:34;;;;;;;3.45;3.15;;;25.50;40.30;;;;;;4958932;28;20273;-67
2022/07/16 05:55:01;;;;;;;3.72;3.30;;;25.60;40.20;;;;;;4959072;28;20206;-67
2022/07/16 05:57:29;;;;;;;3.90;3.60;;;25.60;40.30;;;;;;4958765;28;20210;-68
2022/07/16 05:59:57;;;;;;;3.58;3.28;;;25.70;40.20;;;;;;4958959;28;20214;-67
2022/07/16 06:02:24;;;;;;;3.72;3.42;;;25.70;40.20;;;;;;4958924;28;20617;-67
2022/07/16 06:04:51;;;;;;;3.85;3.30;;;25.80;40.00;;;;;;4976407;28;20714;-67
2022/07/16 06:07:19;;;;;;;4.28;3.00;;;25.90;40.00;;;;;;4958765;28;20204;-67
2022/07/16 06:09:46;;;;;;;4.25;3.35;;;25.90;39.90;;;;;;4958628;28;20198;-68
2022/07/16 06:12:12;;;;;;;3.47;3.15;;;26.00;39.80;;;;;;4975989;28;20221;-68
2022/07/16 06:14:39;;;;;;;3.92;3.53;;;26.10;39.60;;;;;;4958595;28;20201;-68
2022/07/16 06:17:08;;;;;;;3.85;3.20;;;26.20;39.50;;;;;;4958396;28;20201;-67
2022/07/16 06:19:35;;;;;;;4.55;3.42;;;26.20;39.20;;;;;;4958458;28;20260;-67
2022/07/16 06:22:02;;;;;;;6.35;4.07;;;26.30;39.20;;;;;;4958423;28;20288;-68
2022/07/16 06:24:30;;;;;;;3.67;3.05;;;26.40;39.20;;;;;;4976085;28;20202;-67
2022/07/16 06:26:57;;;;;;;3.78;3.30;;;26.50;39.20;;;;;;4958305;28;20202;-66
2022/07/16 06:29:24;;;;;;;4.40;3.50;;;26.50;39.00;;;;;;4958229;28;20194;-67
2022/07/16 06:31:51;;;;;;;4.38;3.60;;;26.60;39.00;;;;;;4975671;28;20248;-68
2022/07/16 06:34:19;;;;;;;5.15;3.67;;;26.60;38.90;;;;;;4958349;28;20560;-67
2022/07/16 06:36:46;;;;;;;3.67;3.38;;;26.60;38.70;;;;;;4975523;28;20186;-67
2022/07/16 06:39:13;;;;;;;3.97;3.20;;;26.70;38.70;;;;;;4975443;28;20710;-67
2022/07/16 06:41:40;;;;;;;3.45;3.15;;;26.80;38.60;;;;;;4958239;28;20202;-67
2022/07/16 06:44:09;;;;;;;5.55;3.72;;;26.80;38.50;;;;;;4958588;28;20208;-67
2022/07/16 06:46:36;;;;;;;5.70;3.90;;;26.80;37.30;;;;;;4958340;28;20234;-67
2022/07/16 06:49:03;;;;;;;3.90;3.50;;;26.60;36.90;;;;;;4958317;28;20578;-67
2022/07/16 06:51:31;;;;;;;4.38;3.58;;;26.60;37.50;;;;;;4957750;28;20685;-69
2022/07/16 06:53:58;;;;;;;3.85;3.42;;;26.60;37.20;;;;;;4975279;28;20238;-67
2022/07/16 06:56:25;;;;;;;4.75;3.55;;;26.70;37.40;;;;;;4973712;28;20198;-67
2022/07/16 06:58:53;;;;;;;3.80;3.45;;;26.70;37.30;;;;;;4973966;28;20237;-67
2022/07/16 07:01:19;;;;;;;4.38;3.85;;;26.80;37.20;;;;;;4973876;28;20198;-67
2022/07/16 07:03:47;;;;;;;4.82;3.70;;;26.90;37.30;;;;;;4973715;28;20222;-67
2022/07/16 07:06:13;;;;;;;5.72;3.58;;;27.00;37.30;;;;;;4974990;28;20205;-67
2022/07/16 07:08:43;;;;;;;5.03;4.00;;;26.90;38.10;;;;;;4957671;28;20209;-67
2022/07/16 07:11:10;;;;;;;4.25;3.85;;;26.80;38.10;;;;;;4958106;28;20626;-67
2022/07/16 07:13:38;;;;;;;4.60;3.80;;;27.00;37.90;;;;;;4957605;28;20313;-67
2022/07/16 07:16:05;;;;;;;4.90;3.80;;;27.00;37.50;;;;;;4957560;28;20680;-67
2022/07/16 07:18:32;;;;;;;4.22;3.55;;;27.20;37.30;;;;;;4973671;28;20204;-67
2022/07/16 07:21:00;;;;;;;5.57;3.67;;;27.20;36.90;;;;;;4957690;28;20207;-68
2022/07/16 07:23:27;;;;;;;4.20;3.03;;;27.20;36.90;;;;;;4973570;28;20228;-67
2022/07/16 07:25:55;;;;;;;3.53;3.22;;;27.40;36.80;;;;;;4957499;28;20551;-67
2022/07/16 07:28:22;;;;;;;3.60;3.30;;;27.60;36.60;;;;;;4975131;28;20224;-67
2022/07/16 07:30:49;;;;;;;7.97;3.45;;;27.50;36.80;;;;;;4973517;28;20782;-67
2022/07/16 07:33:16;;;;;;;5.18;3.30;;;27.60;36.20;;;;;;4957075;28;20214;-67
2022/07/16 07:35:43;;;;;;;4.53;3.17;;;27.60;35.20;;;;;;4957338;28;20288;-67
2022/07/16 07:38:10;;;;;;;4.43;2.85;;;27.70;35.30;;;;;;4957235;28;20273;-67
2022/07/16 07:40:37;;;;;;;3.85;3.17;;;27.70;35.40;;;;;;4973277;28;20817;-67
2022/07/16 07:43:06;;;;;;;3.50;3.00;;;27.80;35.30;;;;;;4973196;28;20572;-67
2022/07/16 07:45:33;;;;;;;5.03;3.28;;;27.80;35.30;;;;;;4974551;28;20273;-67
2022/07/16 07:48:00;;;;;;;4.55;3.20;;;27.70;34.90;;;;;;4957076;28;20260;-67
2022/07/16 07:50:27;;;;;;;4.80;3.28;;;27.30;34.90;;;;;;4974419;28;20659;-67
2022/07/16 07:52:54;;;;;;;5.55;3.10;;;27.30;35.50;;;;;;4956997;28;20221;-67
2022/07/16 07:55:21;;;;;;;5.20;3.47;;;27.50;34.90;;;;;;4957032;28;20201;-67
2022/07/16 07:57:48;;;;;;;3.80;3.13;;;27.20;34.70;;;;;;4974188;28;20197;-68
2022/07/16 08:00:16;;;;;;;5.03;3.17;;;27.10;34.90;;;;;;4974463;28;20206;-67
2022/07/16 08:02:44;;;;;;;5.43;3.13;;;27.20;34.90;;;;;;4957151;28;20222;-67
2022/07/16 08:05:11;;;;;;;4.05;2.83;;;27.40;34.90;;;;;;4974214;28;20214;-67
2022/07/16 08:07:38;;;;;;;4.38;3.20;;;27.70;34.90;;;;;;4959299;28;20197;-67
2022/07/16 08:10:07;;;;;;;3.13;2.90;;;27.70;34.10;;;;;;4960858;28;20208;-67
2022/07/16 08:12:34;;;;;;;5.97;3.17;;;27.80;34.10;;;;;;4979087;28;20224;-67
2022/07/16 08:15:01;;;;;;;4.60;3.00;;;28.00;34.00;;;;;;4962107;28;20651;-67
2022/07/16 08:17:30;;;;;;;3.53;2.90;;;28.00;33.20;;;;;;4960769;28;20233;-67
2022/07/16 08:19:57;;;;;;;5.43;2.70;;;28.10;33.10;;;;;;4978210;28;20685;-67
2022/07/16 08:22:24;;;;;;;3.35;2.90;;;28.20;33.20;;;;;;4977999;28;20213;-67
2022/07/16 08:27:35;;;;;;;2.88;2.58;;;28.30;32.90;;;;;;4960536;28;20230;-67
2022/07/16 08:30:01;;;;;;;2.83;2.58;;;28.30;32.70;;;;;;4976549;28;20205;-67
2022/07/16 08:32:30;;;;;;;3.38;2.42;;;28.20;31.20;;;;;;4960373;28;20366;-68
2022/07/16 08:34:57;;;;;;;4.60;2.30;;;27.90;30.80;;;;;;4977712;28;20194;-67
2022/07/16 08:37:33;;;;;;;4.07;2.50;;;28.00;30.90;;;;;;4960943;28;20565;-68
2022/07/16 08:40:01;;;;;;;3.90;2.50;;;28.00;30.70;;;;;;4960682;28;20213;-68
2022/07/16 08:42:28;;;;;;;4.57;1.98;;;28.10;31.00;;;;;;4960139;28;20624;-68
2022/07/16 08:44:55;;;;;;;3.33;2.25;;;28.20;30.90;;;;;;4960200;28;20681;-67
2022/07/16 08:47:22;;;;;;;4.35;2.22;;;28.20;30.90;;;;;;4960347;28;20572;-67
2022/07/16 08:49:50;;;;;;;3.97;2.30;;;28.20;31.10;;;;;;4976445;28;20207;-67
2022/07/16 08:52:17;;;;;;;4.90;2.25;;;28.30;31.20;;;;;;4960577;28;20694;-67
2022/07/16 08:54:46;;;;;;;2.60;2.15;;;28.20;31.20;;;;;;4977521;28;20233;-67
2022/07/16 08:57:13;;;;;;;4.60;2.35;;;28.20;30.90;;;;;;4977303;28;20225;-67
2022/07/16 08:59:40;;;;;;;3.88;2.53;;;28.10;30.70;;;;;;4959923;28;20667;-68
2022/07/16 09:02:07;;;;;;;3.13;2.20;;;28.10;30.60;;;;;;4976401;28;20225;-67
2022/07/16 09:04:34;;;;;;;3.05;2.15;;;28.10;30.80;;;;;;4960008;28;20260;-67
2022/07/16 09:07:02;;;;;;;2.75;2.33;;;28.20;31.10;;;;;;4977376;28;20543;-67
2022/07/16 09:09:29;;;;;;;3.40;2.22;;;28.30;31.40;;;;;;4976746;28;20284;-68
2022/07/16 09:11:56;;;;;;;2.50;2.10;;;28.40;30.70;;;;;;4977432;28;20209;-67
2022/07/16 09:14:23;;;;;;;2.72;2.13;;;28.40;30.40;;;;;;4977044;28;20193;-67
2022/07/16 09:16:51;;;;;;;2.95;2.17;;;28.40;30.60;;;;;;4976023;28;20668;-67
2022/07/16 09:19:19;;;;;;;2.88;1.83;;;28.40;30.00;;;;;;4976883;28;20197;-67
2022/07/16 09:22:05;;;;;;;2.88;2.10;;;28.40;29.80;;;;;;4960717;28;20232;-67
2022/07/16 09:24:34;;;;;;;2.00;1.70;;;28.40;30.00;;;;;;4977645;28;20182;-68
2022/07/16 09:27:02;;;;;;;2.90;1.80;;;28.40;30.00;;;;;;4977674;28;20189;-67
2022/07/16 09:29:29;;;;;;;2.83;2.10;;;28.40;29.80;;;;;;4977502;28;20228;-67
2022/07/16 09:31:56;;;;;;;2.20;1.85;;;28.40;29.60;;;;;;4975574;28;20218;-67
2022/07/16 09:34:23;;;;;;;2.08;1.70;;;28.40;29.90;;;;;;4959743;28;20201;-67
2022/07/16 09:36:57;;;;;;;3.05;1.88;;;28.40;29.90;;;;;;4976996;28;20197;-67
2022/07/16 09:39:26;;;;;;;3.47;1.88;;;28.40;29.50;;;;;;4976529;28;20189;-67
2022/07/16 09:41:53;;;;;;;1.90;1.70;;;28.40;29.60;;;;;;4976621;28;20247;-67
2022/07/16 09:44:21;;;;;;;4.05;1.85;;;28.40;29.40;;;;;;4975421;28;20702;-67
2022/07/16 09:47:03;;;;;;;3.42;2.10;;;28.40;29.90;;;;;;4976531;28;20186;-67
2022/07/16 09:49:31;;;;;;;2.40;1.95;;;28.40;30.00;;;;;;4976737;28;20201;-67
2022/07/16 09:51:58;;;;;;;4.38;2.10;;;28.40;30.40;;;;;;4959033;28;20225;-67
2022/07/16 09:54:28;;;;;;;2.10;1.90;;;28.30;29.50;;;;;;4959108;28;20217;-67
2022/07/16 09:57:09;;;;;;;2.35;1.98;;;28.30;29.60;;;;;;4958927;28;20213;-66
2022/07/16 09:59:36;;;;;;;3.30;1.90;;;28.30;29.90;;;;;;4958845;28;20552;-68
2022/07/16 10:02:04;;;;;;;2.58;1.90;;;28.30;29.50;;;;;;4958768;28;20248;-67
2022/07/16 10:04:31;;;;;;;2.22;1.75;;;28.30;29.90;;;;;;4976042;28;20194;-67
2022/07/16 10:06:58;;;;;;;2.90;1.80;;;28.30;30.00;;;;;;4974905;28;20205;-67
2022/07/16 10:09:27;;;;;;;2.47;1.80;;;28.30;30.10;;;;;;4976028;28;20194;-67
2022/07/16 10:11:54;;;;;;;2.55;1.88;;;28.20;29.70;;;;;;4958719;28;20213;-67
2022/07/16 10:14:21;;;;;;;2.95;1.80;;;28.20;29.50;;;;;;4958743;28;20206;-67
2022/07/16 10:16:48;;;;;;;3.53;1.70;;;28.20;29.60;;;;;;4975931;28;20658;-67
2022/07/16 10:19:15;;;;;;;3.25;1.70;;;28.20;29.50;;;;;;4958515;28;20202;-67
2022/07/16 10:21:42;;;;;;;2.42;1.70;;;28.10;29.70;;;;;;4975690;28;20232;-67
2022/07/16 10:24:10;;;;;;;2.20;1.73;;;28.10;29.50;;;;;;4958431;28;20241;-67
2022/07/16 10:26:39;;;;;;;2.53;1.75;;;28.10;29.40;;;;;;4974517;28;20205;-67
2022/07/16 10:29:06;;;;;;;2.45;1.73;;;28.00;29.40;;;;;;4957840;28;20202;-67
2022/07/16 10:31:35;;;;;;;3.00;1.92;;;28.10;29.80;;;;;;4958364;28;20193;-66
2022/07/16 10:34:41;;;;;;;3.22;1.98;;;28.00;30.20;;;;;;4975482;28;20658;-67
2022/07/16 10:37:10;;;;;;;2.45;2.00;;;28.00;30.10;;;;;;4958360;28;20299;-67
2022/07/16 10:40:03;;;;;;;3.05;1.70;;;27.90;29.90;;;;;;4974229;28;20662;-67
2022/07/16 10:42:32;;;;;;;2.80;2.10;;;27.80;29.90;;;;;;4974131;28;20221;-67
2022/07/16 10:44:59;;;;;;;2.58;1.70;;;27.80;30.00;;;;;;4957958;28;20581;-67
2022/07/16 10:47:47;;;;;;;1.90;1.70;;;27.70;30.80;;;;;;4974144;28;20202;-68
2022/07/16 10:50:16;;;;;;;4.03;1.80;;;27.70;31.10;;;;;;4975349;28;20690;-67
2022/07/16 10:52:44;;;;;;;3.22;2.00;;;27.70;30.40;;;;;;4975181;28;20594;-67
2022/07/16 10:55:11;;;;;;;2.20;1.65;;;27.60;29.80;;;;;;4957958;28;20556;-67
2022/07/16 10:57:41;;;;;;;2.40;1.77;;;27.60;30.70;;;;;;4957743;28;20674;-69
2022/07/16 11:00:09;;;;;;;4.20;1.95;;;27.60;31.20;;;;;;4973980;28;20276;-67
2022/07/16 11:02:39;;;;;;;3.13;1.70;;;27.50;31.50;;;;;;4957746;28;20740;-67
2022/07/16 11:05:07;;;;;;;1.90;1.50;;;27.50;31.00;;;;;;4957702;28;20670;-67
2022/07/16 11:07:35;;;;;;;3.20;1.83;;;27.50;31.70;;;;;;4957572;28;20224;-67
2022/07/16 11:10:02;;;;;;;2.58;1.40;;;27.40;30.90;;;;;;4974921;28;20213;-67
2022/07/16 11:12:31;;;;;;;2.40;1.70;;;27.30;30.80;;;;;;4975090;28;20213;-68
2022/07/16 11:15:00;;;;;;;2.92;1.60;;;27.20;30.60;;;;;;4958069;28;20582;-67
2022/07/16 11:17:28;;;;;;;1.80;1.50;;;27.20;30.70;;;;;;4957776;28;20204;-67
2022/07/16 11:19:56;;;;;;;4.70;1.90;;;27.20;31.80;;;;;;4958101;28;20198;-67
2022/07/16 11:22:26;;;;;;;2.50;1.50;;;27.20;31.20;;;;;;4973583;28;20221;-67
2022/07/16 11:24:53;;;;;;;3.15;2.00;;;27.20;30.10;;;;;;4975342;28;20221;-67
2022/07/16 11:27:25;;;;;;;2.20;1.75;;;27.20;29.90;;;;;;4973833;28;20201;-67
2022/07/16 11:29:55;;;;;;;4.22;1.50;;;27.10;30.00;;;;;;4974319;28;20197;-67
2022/07/16 11:32:24;;;;;;;2.38;1.55;;;27.10;31.10;;;;;;4957476;28;20217;-67
2022/07/16 11:34:51;;;;;;;5.30;1.88;;;27.10;30.00;;;;;;4975081;28;20193;-67
2022/07/16 11:37:18;;;;;;;1.58;1.48;;;27.00;30.10;;;;;;4974920;28;20662;-67
2022/07/16 11:39:45;;;;;;;3.05;1.60;;;27.00;30.50;;;;;;4973484;28;20582;-67
2022/07/16 11:42:12;;;;;;;3.00;1.85;;;27.00;29.50;;;;;;4960773;28;20717;-67
2022/07/16 11:44:40;;;;;;;5.43;1.85;;;27.00;30.00;;;;;;4961298;28;20193;-67
2022/07/16 11:47:08;;;;;;;2.05;1.70;;;26.90;31.10;;;;;;4978626;28;20193;-68
2022/07/16 11:49:37;;;;;;;2.38;1.70;;;27.00;30.80;;;;;;4961137;28;20577;-68
2022/07/16 11:52:08;;;;;;;2.22;1.60;;;27.00;30.40;;;;;;4961084;28;20219;-68
2022/07/16 11:54:36;;;;;;;3.03;1.70;;;27.00;30.60;;;;;;4978495;28;20182;-68
2022/07/16 11:57:03;;;;;;;2.95;1.65;;;26.90;32.00;;;;;;4960945;28;20209;-68
2022/07/16 11:59:32;;;;;;;3.90;1.55;;;26.90;31.90;;;;;;4978660;28;20193;-68
2022/07/16 12:02:01;;;;;;;3.88;1.70;;;26.90;32.30;;;;;;4998709;23;20239;-71
2022/07/16 12:04:37;;;;;;;3.25;1.63;;;26.90;32.40;;;;;;4997906;28;20565;-71
2022/07/16 12:07:05;;;;;;;2.75;1.50;;;26.90;32.40;;;;;;4980579;28;20232;-72
2022/07/16 12:09:33;;;;;;;2.70;1.50;;;26.90;32.80;;;;;;4980276;28;20220;-71
2022/07/16 12:12:01;;;;;;;1.55;1.38;;;26.90;31.80;;;;;;4980402;28;20263;-72
2022/07/16 12:14:45;;;;;;;1.60;1.50;;;26.90;33.50;;;;;;4997814;28;20197;-71
2022/07/16 12:17:28;;;;;;;2.13;1.67;;;26.90;32.00;;;;;;4980046;28;20205;-71
2022/07/16 12:20:12;;;;;;;4.38;1.63;;;26.90;32.50;;;;;;4980115;28;20288;-71
2022/07/16 12:22:57;;;;;;;2.10;1.50;;;27.00;32.50;;;;;;4979956;28;20267;-72
2022/07/16 12:25:36;;;;;;;1.77;1.50;;;27.10;32.50;;;;;;4979508;28;20205;-71
2022/07/16 12:28:05;;;;;;;1.95;1.52;;;27.10;32.90;;;;;;4979909;28;20292;-72
2022/07/16 12:30:33;;;;;;;2.30;1.70;;;27.10;33.70;;;;;;4979856;28;20196;-72
2022/07/16 12:33:02;;;;;;;2.25;1.50;;;27.10;33.30;;;;;;4980456;28;20219;-72
2022/07/16 12:35:44;;;;;;;2.83;1.50;;;27.20;33.30;;;;;;4979725;28;20209;-72
2022/07/16 12:38:39;;;;;;;1.63;1.52;;;27.20;33.40;;;;;;4979789;28;20193;-72
2022/07/16 12:41:07;;;;;;;1.98;1.50;;;27.20;33.60;;;;;;4979543;28;20257;-72
2022/07/16 12:43:35;;;;;;;2.78;1.35;;;27.20;33.50;;;;;;4997346;28;20281;-72
2022/07/16 12:46:03;;;;;;;2.08;1.50;;;27.10;33.50;;;;;;4979511;28;20207;-72
2022/07/16 12:48:30;;;;;;;1.60;1.50;;;27.10;33.60;;;;;;4979558;28;20208;-72
2022/07/16 12:50:59;;;;;;;4.32;1.30;;;27.10;33.70;;;;;;4997155;28;20231;-72
2022/07/16 12:53:26;;;;;;;2.83;1.70;;;27.10;33.90;;;;;;4978800;28;20236;-72
2022/07/16 12:58:50;;;;;;;1.42;1.33;;;27.10;34.10;;;;;;4996881;28;20177;-72
2022/07/16 13:01:18;;;;;;;1.60;1.50;;;27.20;34.30;;;;;;4979831;28;20225;-72
2022/07/16 13:03:45;;;;;;;1.48;1.33;;;27.10;34.30;;;;;;4981436;28;20288;-72
2022/07/16 13:06:14;;;;;;;1.85;1.40;;;27.20;34.40;;;;;;4980848;28;20738;-72
2022/07/16 13:08:41;;;;;;;1.70;1.25;;;27.20;34.40;;;;;;4979279;28;20263;-72